IAN127 DNMM-DNPO
Flight info
| Callsign | IAN127 |
|---|---|
| Flight time | 0h 43m |
| Altitude | 27000 |
| Route | BOTBO1S BOTBO R984 ARAGU ARAGU1R |
| Aircraft | CRJ7/M-SDFGIRWY/S |
Departure
| Time | 2026-05-08 14:18 |
|---|---|
| Airport | Murtala Muhammed International Airport (DNMM) |
Arrival
| Time | 2026-05-08 15:01 |
|---|---|
| Airport | Port Harcourt International Airport (DNPO) |
| Time | Latitude | Longitude | Altitude | Speed | Heading |
|---|---|---|---|---|---|
| 2026-05-08 11:18 | 6.58477 | 3.33192 | 129 ft | 0 kts | 116° |
| 2026-05-08 11:49 | 6.58478 | 3.33192 | 127 ft | 0 kts | 116° |
| 2026-05-08 13:02 | 6.58478 | 3.33191 | 127 ft | 0 kts | 116° |
| 2026-05-08 13:48 | 6.58479 | 3.33191 | 127 ft | 0 kts | 116° |
| 2026-05-08 13:48 | 6.58478 | 3.33191 | 127 ft | 0 kts | 116° |
| 2026-05-08 13:49 | 6.58479 | 3.33191 | 127 ft | 0 kts | 116° |
| 2026-05-08 14:08 | 6.58482 | 3.33180 | 123 ft | 2 kts | 96° |
| 2026-05-08 14:08 | 6.58478 | 3.33164 | 125 ft | 2 kts | 57° |
| 2026-05-08 14:09 | 6.58466 | 3.33153 | 125 ft | 2 kts | 27° |
| 2026-05-08 14:09 | 6.58451 | 3.33149 | 123 ft | 1 kts | 10° |
| 2026-05-08 14:09 | 6.58446 | 3.33148 | 126 ft | 0 kts | 5° |
| 2026-05-08 14:12 | 6.58448 | 3.33148 | 122 ft | 0 kts | 5° |
| 2026-05-08 14:12 | 6.58449 | 3.33148 | 122 ft | 0 kts | 5° |
| 2026-05-08 14:13 | 6.58451 | 3.33148 | 123 ft | 1 kts | 5° |
| 2026-05-08 14:13 | 6.58474 | 3.33148 | 125 ft | 6 kts | 358° |
| 2026-05-08 14:13 | 6.58532 | 3.33146 | 126 ft | 10 kts | 356° |
| 2026-05-08 14:13 | 6.58564 | 3.33092 | 122 ft | 11 kts | 269° |
| 2026-05-08 14:14 | 6.58611 | 3.33042 | 123 ft | 11 kts | 0° |
| 2026-05-08 14:14 | 6.58690 | 3.33042 | 125 ft | 11 kts | 359° |
| 2026-05-08 14:14 | 6.58769 | 3.33041 | 123 ft | 11 kts | 360° |
| 2026-05-08 14:14 | 6.58846 | 3.33041 | 126 ft | 11 kts | 0° |
| 2026-05-08 14:15 | 6.58922 | 3.33041 | 128 ft | 11 kts | 0° |
| 2026-05-08 14:15 | 6.59004 | 3.33041 | 128 ft | 13 kts | 359° |
| 2026-05-08 14:15 | 6.59098 | 3.33039 | 127 ft | 14 kts | 359° |
| 2026-05-08 14:15 | 6.59202 | 3.33038 | 127 ft | 15 kts | 359° |
| 2026-05-08 14:16 | 6.59310 | 3.33037 | 128 ft | 16 kts | 360° |
| 2026-05-08 14:16 | 6.59418 | 3.33037 | 128 ft | 16 kts | 359° |
| 2026-05-08 14:16 | 6.59530 | 3.33035 | 128 ft | 16 kts | 359° |
| 2026-05-08 14:16 | 6.59642 | 3.33030 | 132 ft | 15 kts | 335° |
| 2026-05-08 14:17 | 6.59661 | 3.32943 | 135 ft | 13 kts | 268° |
| 2026-05-08 14:17 | 6.59615 | 3.32886 | 135 ft | 12 kts | 181° |
| 2026-05-08 14:17 | 6.59494 | 3.32888 | 131 ft | 34 kts | 179° |
| 2026-05-08 14:17 | 6.58949 | 3.32894 | 125 ft | 127 kts | 178° |
| 2026-05-08 14:18 | 6.57823 | 3.32906 | 430 ft | 181 kts | 179° |
| 2026-05-08 14:18 | 6.56525 | 3.32917 | 1458 ft | 192 kts | 181° |
| 2026-05-08 14:18 | 6.55131 | 3.32916 | 2475 ft | 208 kts | 179° |
| 2026-05-08 14:18 | 6.53762 | 3.33467 | 3544 ft | 222 kts | 136° |
| 2026-05-08 14:19 | 6.53076 | 3.34850 | 4761 ft | 227 kts | 98° |
| 2026-05-08 14:19 | 6.53052 | 3.36429 | 6087 ft | 226 kts | 84° |
| 2026-05-08 14:19 | 6.53282 | 3.38004 | 7305 ft | 227 kts | 78° |
| 2026-05-08 14:19 | 6.53644 | 3.39593 | 8316 ft | 242 kts | 77° |
| 2026-05-08 14:20 | 6.53841 | 3.41328 | 9251 ft | 257 kts | 92° |
| 2026-05-08 14:20 | 6.53398 | 3.43077 | 10409 ft | 264 kts | 106° |
| 2026-05-08 14:20 | 6.52738 | 3.44890 | 11091 ft | 287 kts | 108° |
| 2026-05-08 14:20 | 6.52001 | 3.46830 | 11812 ft | 307 kts | 108° |
| 2026-05-08 14:21 | 6.51231 | 3.48896 | 12611 ft | 324 kts | 108° |
| 2026-05-08 14:21 | 6.50457 | 3.51060 | 13643 ft | 333 kts | 107° |
| 2026-05-08 14:21 | 6.49692 | 3.53289 | 14605 ft | 342 kts | 107° |
| 2026-05-08 14:21 | 6.48919 | 3.55586 | 15547 ft | 351 kts | 107° |
| 2026-05-08 14:22 | 6.48136 | 3.57940 | 16485 ft | 359 kts | 107° |
| 2026-05-08 14:22 | 6.47342 | 3.60353 | 17421 ft | 368 kts | 107° |
| 2026-05-08 14:22 | 6.46534 | 3.62824 | 18309 ft | 376 kts | 107° |
| 2026-05-08 14:22 | 6.45715 | 3.65345 | 19147 ft | 382 kts | 107° |
| 2026-05-08 14:23 | 6.44888 | 3.67902 | 19999 ft | 387 kts | 107° |
| 2026-05-08 14:23 | 6.44035 | 3.70484 | 20823 ft | 392 kts | 107° |
| 2026-05-08 14:23 | 6.43160 | 3.73100 | 21624 ft | 397 kts | 108° |
| 2026-05-08 14:23 | 6.42273 | 3.75748 | 22408 ft | 402 kts | 108° |
| 2026-05-08 14:24 | 6.41375 | 3.78432 | 23170 ft | 407 kts | 108° |
| 2026-05-08 14:24 | 6.40469 | 3.81148 | 23844 ft | 411 kts | 108° |
| 2026-05-08 14:24 | 6.39556 | 3.83882 | 24510 ft | 414 kts | 108° |
| 2026-05-08 14:24 | 6.38637 | 3.86629 | 25165 ft | 416 kts | 108° |
| 2026-05-08 14:25 | 6.37709 | 3.89397 | 25789 ft | 419 kts | 108° |
| 2026-05-08 14:25 | 6.36773 | 3.92181 | 26357 ft | 424 kts | 108° |
| 2026-05-08 14:25 | 6.35825 | 3.95023 | 26632 ft | 435 kts | 107° |
| 2026-05-08 14:25 | 6.34859 | 3.97954 | 26771 ft | 449 kts | 107° |
| 2026-05-08 14:26 | 6.33850 | 4.00972 | 26838 ft | 460 kts | 108° |
| 2026-05-08 14:26 | 6.32830 | 4.04011 | 26864 ft | 459 kts | 107° |
| 2026-05-08 14:26 | 6.31825 | 4.07064 | 26873 ft | 462 kts | 107° |
| 2026-05-08 14:26 | 6.30803 | 4.10135 | 26872 ft | 464 kts | 107° |
| 2026-05-08 14:27 | 6.29769 | 4.13215 | 26876 ft | 466 kts | 108° |
| 2026-05-08 14:27 | 6.28740 | 4.16310 | 26870 ft | 468 kts | 107° |
| 2026-05-08 14:27 | 6.27709 | 4.19415 | 26870 ft | 469 kts | 107° |
| 2026-05-08 14:27 | 6.26674 | 4.22500 | 26867 ft | 463 kts | 107° |
| 2026-05-08 14:28 | 6.25664 | 4.25561 | 26863 ft | 460 kts | 107° |
| 2026-05-08 14:28 | 6.24651 | 4.28595 | 26859 ft | 457 kts | 107° |
| 2026-05-08 14:28 | 6.23632 | 4.31608 | 26853 ft | 454 kts | 110° |
| 2026-05-08 14:28 | 6.22377 | 4.34515 | 26853 ft | 453 kts | 114° |
| 2026-05-08 14:29 | 6.20972 | 4.37345 | 26855 ft | 452 kts | 115° |
| 2026-05-08 14:29 | 6.19547 | 4.40149 | 26852 ft | 450 kts | 115° |
| 2026-05-08 14:29 | 6.18145 | 4.42959 | 26853 ft | 449 kts | 115° |
| 2026-05-08 14:29 | 6.16782 | 4.45777 | 26851 ft | 448 kts | 114° |
| 2026-05-08 14:30 | 6.15437 | 4.48599 | 26856 ft | 447 kts | 114° |
| 2026-05-08 14:30 | 6.14102 | 4.51420 | 26855 ft | 447 kts | 114° |
| 2026-05-08 14:30 | 6.12789 | 4.54203 | 26857 ft | 446 kts | 114° |
| 2026-05-08 14:30 | 6.11459 | 4.57021 | 26855 ft | 446 kts | 114° |
| 2026-05-08 14:31 | 6.10131 | 4.59837 | 26856 ft | 446 kts | 114° |
| 2026-05-08 14:31 | 6.08803 | 4.62652 | 26858 ft | 446 kts | 114° |
| 2026-05-08 14:31 | 6.07461 | 4.65460 | 26857 ft | 446 kts | 114° |
| 2026-05-08 14:32 | 6.04782 | 4.71073 | 26859 ft | 446 kts | 114° |
| 2026-05-08 14:32 | 6.03450 | 4.73883 | 26856 ft | 445 kts | 114° |
| 2026-05-08 14:32 | 6.02113 | 4.76691 | 26858 ft | 445 kts | 114° |
| 2026-05-08 14:32 | 6.00769 | 4.79494 | 26855 ft | 445 kts | 114° |
| 2026-05-08 14:33 | 5.99433 | 4.82299 | 26854 ft | 445 kts | 114° |
| 2026-05-08 14:33 | 5.98099 | 4.85107 | 26855 ft | 445 kts | 114° |
| 2026-05-08 14:33 | 5.96764 | 4.87917 | 26855 ft | 445 kts | 114° |
| 2026-05-08 14:33 | 5.95423 | 4.90722 | 26855 ft | 445 kts | 114° |
| 2026-05-08 14:34 | 5.94534 | 4.92579 | 26854 ft | 445 kts | 114° |
| 2026-05-08 14:34 | 5.93196 | 4.95385 | 26855 ft | 445 kts | 114° |
| 2026-05-08 14:34 | 5.91859 | 4.98191 | 26854 ft | 445 kts | 114° |
| 2026-05-08 14:34 | 5.90515 | 5.00989 | 26856 ft | 445 kts | 114° |
| 2026-05-08 14:35 | 5.89151 | 5.03782 | 26864 ft | 445 kts | 114° |
| 2026-05-08 14:35 | 5.87799 | 5.06585 | 26877 ft | 446 kts | 114° |
| 2026-05-08 14:35 | 5.86452 | 5.09391 | 26863 ft | 446 kts | 114° |
| 2026-05-08 14:35 | 5.85109 | 5.12197 | 26860 ft | 446 kts | 114° |
| 2026-05-08 14:36 | 5.83768 | 5.15004 | 26861 ft | 446 kts | 114° |
| 2026-05-08 14:36 | 5.82426 | 5.17813 | 26858 ft | 446 kts | 114° |
| 2026-05-08 14:36 | 5.81085 | 5.20618 | 26857 ft | 446 kts | 114° |
| 2026-05-08 14:36 | 5.79741 | 5.23432 | 26859 ft | 446 kts | 114° |
| 2026-05-08 14:37 | 5.78398 | 5.26238 | 26867 ft | 446 kts | 114° |
| 2026-05-08 14:37 | 5.77054 | 5.29048 | 26862 ft | 446 kts | 114° |
| 2026-05-08 14:37 | 5.75709 | 5.31857 | 26857 ft | 446 kts | 114° |
| 2026-05-08 14:37 | 5.74364 | 5.34665 | 26856 ft | 446 kts | 114° |
| 2026-05-08 14:38 | 5.73017 | 5.37475 | 26854 ft | 446 kts | 114° |
| 2026-05-08 14:38 | 5.71670 | 5.40282 | 26853 ft | 446 kts | 114° |
| 2026-05-08 14:38 | 5.70322 | 5.43091 | 26861 ft | 447 kts | 114° |
| 2026-05-08 14:38 | 5.68972 | 5.45901 | 26859 ft | 447 kts | 114° |
| 2026-05-08 14:39 | 5.67623 | 5.48707 | 26855 ft | 447 kts | 114° |
| 2026-05-08 14:39 | 5.66270 | 5.51517 | 26850 ft | 447 kts | 114° |
| 2026-05-08 14:39 | 5.64917 | 5.54324 | 26849 ft | 447 kts | 114° |
| 2026-05-08 14:39 | 5.63564 | 5.57132 | 26850 ft | 447 kts | 114° |
| 2026-05-08 14:40 | 5.62212 | 5.59935 | 26850 ft | 447 kts | 114° |
| 2026-05-08 14:40 | 5.60858 | 5.62741 | 26851 ft | 447 kts | 114° |
| 2026-05-08 14:40 | 5.59504 | 5.65546 | 26852 ft | 447 kts | 114° |
| 2026-05-08 14:40 | 5.58166 | 5.68315 | 26851 ft | 447 kts | 114° |
| 2026-05-08 14:41 | 5.56810 | 5.71119 | 26850 ft | 447 kts | 114° |
| 2026-05-08 14:41 | 5.55467 | 5.73932 | 26848 ft | 447 kts | 114° |
| 2026-05-08 14:41 | 5.54121 | 5.76739 | 26847 ft | 447 kts | 114° |
| 2026-05-08 14:41 | 5.52766 | 5.79545 | 26844 ft | 447 kts | 114° |
| 2026-05-08 14:42 | 5.51412 | 5.82351 | 26843 ft | 447 kts | 114° |
| 2026-05-08 14:42 | 5.50080 | 5.85166 | 26844 ft | 446 kts | 113° |
| 2026-05-08 14:42 | 5.48761 | 5.87987 | 26843 ft | 446 kts | 113° |
| 2026-05-08 14:42 | 5.47433 | 5.90803 | 26843 ft | 447 kts | 114° |
| 2026-05-08 14:43 | 5.46074 | 5.93616 | 26713 ft | 449 kts | 114° |
| 2026-05-08 14:43 | 5.44710 | 5.96429 | 26325 ft | 448 kts | 114° |
| 2026-05-08 14:43 | 5.43352 | 5.99231 | 26013 ft | 445 kts | 114° |
| 2026-05-08 14:43 | 5.42005 | 6.02021 | 25691 ft | 443 kts | 114° |
| 2026-05-08 14:44 | 5.40667 | 6.04797 | 25371 ft | 441 kts | 114° |
| 2026-05-08 14:44 | 5.39336 | 6.07556 | 25046 ft | 438 kts | 114° |
| 2026-05-08 14:44 | 5.37997 | 6.10297 | 24713 ft | 436 kts | 114° |
| 2026-05-08 14:44 | 5.36682 | 6.13028 | 24283 ft | 433 kts | 114° |
| 2026-05-08 14:45 | 5.35372 | 6.15738 | 23880 ft | 431 kts | 115° |
| 2026-05-08 14:45 | 5.34061 | 6.18435 | 23496 ft | 429 kts | 114° |
| 2026-05-08 14:45 | 5.32874 | 6.21170 | 23082 ft | 426 kts | 111° |
| 2026-05-08 14:45 | 5.31830 | 6.23935 | 22694 ft | 423 kts | 109° |
| 2026-05-08 14:46 | 5.30817 | 6.26697 | 22306 ft | 420 kts | 109° |
| 2026-05-08 14:46 | 5.29794 | 6.29436 | 21932 ft | 418 kts | 110° |
| 2026-05-08 14:46 | 5.28764 | 6.32150 | 21586 ft | 416 kts | 110° |
| 2026-05-08 14:46 | 5.27708 | 6.34844 | 21252 ft | 413 kts | 110° |
| 2026-05-08 14:47 | 5.26643 | 6.37514 | 20929 ft | 412 kts | 111° |
| 2026-05-08 14:47 | 5.25575 | 6.40173 | 20702 ft | 409 kts | 111° |
| 2026-05-08 14:47 | 5.24520 | 6.42820 | 20421 ft | 408 kts | 111° |
| 2026-05-08 14:47 | 5.23475 | 6.45463 | 19999 ft | 406 kts | 110° |
| 2026-05-08 14:48 | 5.22452 | 6.48091 | 19527 ft | 403 kts | 110° |
| 2026-05-08 14:48 | 5.21433 | 6.50698 | 18989 ft | 400 kts | 111° |
| 2026-05-08 14:48 | 5.20382 | 6.53275 | 18446 ft | 397 kts | 111° |
| 2026-05-08 14:48 | 5.19358 | 6.55840 | 17886 ft | 394 kts | 110° |
| 2026-05-08 14:49 | 5.18361 | 6.58382 | 17361 ft | 390 kts | 110° |
| 2026-05-08 14:49 | 5.17375 | 6.60899 | 16844 ft | 386 kts | 110° |
| 2026-05-08 14:49 | 5.16398 | 6.63388 | 16411 ft | 381 kts | 110° |
| 2026-05-08 14:49 | 5.15429 | 6.65849 | 15925 ft | 378 kts | 110° |
| 2026-05-08 14:50 | 5.14462 | 6.68287 | 15324 ft | 374 kts | 110° |
| 2026-05-08 14:50 | 5.13514 | 6.70694 | 14775 ft | 369 kts | 109° |
| 2026-05-08 14:50 | 5.12584 | 6.73080 | 14201 ft | 365 kts | 109° |
| 2026-05-08 14:50 | 5.11667 | 6.75431 | 13622 ft | 360 kts | 109° |
| 2026-05-08 14:51 | 5.10757 | 6.77755 | 12979 ft | 356 kts | 109° |
| 2026-05-08 14:51 | 5.09857 | 6.80059 | 12307 ft | 352 kts | 107° |
| 2026-05-08 14:51 | 5.09525 | 6.82401 | 11611 ft | 343 kts | 83° |
| 2026-05-08 14:51 | 5.10094 | 6.84702 | 10941 ft | 338 kts | 73° |
| 2026-05-08 14:52 | 5.10853 | 6.86919 | 10286 ft | 333 kts | 69° |
| 2026-05-08 14:52 | 5.12653 | 6.90900 | 8831 ft | 295 kts | 58° |
| 2026-05-08 14:52 | 5.14073 | 6.92308 | 8089 ft | 284 kts | 37° |
| 2026-05-08 14:53 | 5.15751 | 6.93306 | 7383 ft | 277 kts | 29° |
| 2026-05-08 14:53 | 5.17467 | 6.94101 | 6861 ft | 264 kts | 26° |
| 2026-05-08 14:53 | 5.18904 | 6.95103 | 6389 ft | 246 kts | 55° |
| 2026-05-08 14:53 | 5.19433 | 6.96660 | 5748 ft | 237 kts | 92° |
| 2026-05-08 14:54 | 5.18984 | 6.98231 | 5033 ft | 236 kts | 112° |
| 2026-05-08 14:54 | 5.18616 | 6.99098 | 4601 ft | 237 kts | 113° |
| 2026-05-08 14:56 | 5.18093 | 7.00371 | 4014 ft | 237 kts | 113° |
| 2026-05-08 14:57 | 5.17500 | 7.01894 | 3467 ft | 229 kts | 112° |
| 2026-05-08 14:57 | 5.16636 | 7.03107 | 3141 ft | 206 kts | 150° |
| 2026-05-08 14:57 | 5.15338 | 7.03334 | 2900 ft | 184 kts | 198° |
| 2026-05-08 14:57 | 5.14333 | 7.02662 | 2667 ft | 171 kts | 220° |
| 2026-05-08 14:58 | 5.13407 | 7.01879 | 2416 ft | 177 kts | 218° |
| 2026-05-08 14:58 | 5.12438 | 7.01125 | 2184 ft | 176 kts | 215° |
| 2026-05-08 14:58 | 5.11454 | 7.00404 | 1935 ft | 174 kts | 214° |
| 2026-05-08 14:58 | 5.10453 | 6.99755 | 1718 ft | 166 kts | 210° |
| 2026-05-08 14:59 | 5.09477 | 6.99203 | 1527 ft | 157 kts | 209° |
| 2026-05-08 14:59 | 5.07619 | 6.98205 | 1173 ft | 146 kts | 207° |
| 2026-05-08 14:59 | 5.06762 | 6.97744 | 1080 ft | 138 kts | 206° |
| 2026-05-08 15:00 | 5.05904 | 6.97276 | 921 ft | 146 kts | 207° |
| 2026-05-08 15:00 | 5.05000 | 6.96799 | 788 ft | 151 kts | 207° |
| 2026-05-08 15:00 | 5.04070 | 6.96308 | 567 ft | 147 kts | 208° |
| 2026-05-08 15:00 | 5.03222 | 6.95849 | 322 ft | 132 kts | 206° |
| 2026-05-08 15:01 | 5.02461 | 6.95447 | 70 ft | 112 kts | 207° |
| 2026-05-08 15:01 | 5.01888 | 6.95141 | 61 ft | 68 kts | 209° |
| 2026-05-08 15:01 | 5.01560 | 6.94966 | 60 ft | 46 kts | 208° |
| 2026-05-08 15:01 | 5.01303 | 6.94827 | 57 ft | 38 kts | 206° |
| 2026-05-08 15:02 | 5.01081 | 6.94719 | 56 ft | 31 kts | 197° |
| 2026-05-08 15:02 | 5.00910 | 6.94711 | 60 ft | 19 kts | 178° |
| 2026-05-08 15:02 | 5.00825 | 6.94781 | 58 ft | 17 kts | 99° |
| 2026-05-08 15:02 | 5.00790 | 6.94894 | 59 ft | 17 kts | 122° |
| 2026-05-08 15:03 | 5.00743 | 6.94903 | 60 ft | 6 kts | 219° |
| 2026-05-08 15:03 | 5.00732 | 6.94896 | 61 ft | 0 kts | 205° |